createdAt,value
2022-11-15T00:30:28.031Z,1000.21
2022-11-15T00:31:09.251Z,1000.14
2022-11-15T00:31:49.731Z,1000.2
2022-11-15T00:32:30.239Z,1000.2
2022-11-15T00:33:10.707Z,1000.21
2022-11-15T00:33:51.192Z,1000.23
2022-11-15T00:34:31.646Z,1000.21
2022-11-15T00:35:12.140Z,1000.19
2022-11-15T00:35:52.560Z,1000.22
2022-11-15T00:36:33.033Z,1000.16
2022-11-15T00:37:13.513Z,1000.17
2022-11-15T00:37:53.993Z,1000.18
2022-11-15T00:38:34.440Z,1000.16
2022-11-15T00:39:14.879Z,1000.14
2022-11-15T00:39:55.395Z,1000.13
2022-11-15T00:40:35.820Z,1000.15
2022-11-15T00:41:16.292Z,1000.14
2022-11-15T00:41:56.779Z,1000.13
2022-11-15T00:42:37.219Z,1000.17
2022-11-15T00:43:17.680Z,1000.12
2022-11-15T00:43:58.134Z,1000.14
2022-11-15T00:44:38.624Z,1000.18
2022-11-15T00:45:19.117Z,1000.14
2022-11-15T00:45:59.595Z,1000.18
2022-11-15T00:46:40.073Z,1000.18
2022-11-15T00:47:20.545Z,1000.18
2022-11-15T00:48:00.995Z,1000.13
2022-11-15T00:48:41.560Z,1000.07
2022-11-15T00:49:22.025Z,1000.09
2022-11-15T00:50:02.517Z,1000.08
2022-11-15T00:50:42.965Z,1000.08
2022-11-15T00:51:23.460Z,1000.1
2022-11-15T00:52:03.915Z,1000.07
2022-11-15T00:52:44.365Z,1000.09
2022-11-15T00:53:24.841Z,1000.07
2022-11-15T00:54:05.329Z,1000.04
2022-11-15T00:54:45.749Z,1000.12
2022-11-15T00:55:26.252Z,1000.11
2022-11-15T00:56:06.688Z,1000.1
2022-11-15T00:56:47.144Z,1000.12
2022-11-15T00:57:27.625Z,1000.05
2022-11-15T00:58:08.116Z,1000.04
2022-11-15T00:58:48.629Z,1000.12
2022-11-15T00:59:29.098Z,1000.03
2022-11-15T01:00:09.561Z,1000.07
2022-11-15T01:00:50.167Z,1000.02
2022-11-15T01:01:30.595Z,1000.06
2022-11-15T01:02:11.034Z,1000.07
2022-11-15T01:02:51.556Z,1000.05
2022-11-15T01:03:32.182Z,1000.07
2022-11-15T01:04:12.500Z,1000.05
2022-11-15T01:04:52.936Z,1000.06
2022-11-15T01:05:33.379Z,1000.09
2022-11-15T01:06:13.834Z,1000.07
2022-11-15T01:06:54.406Z,1000.07
2022-11-15T01:07:34.845Z,1000.11
2022-11-15T01:08:15.244Z,1000.06
2022-11-15T01:08:55.723Z,1000.04
2022-11-15T01:09:36.186Z,1000.13
2022-11-15T01:10:16.659Z,1000.08
2022-11-15T01:10:57.153Z,1000.04
2022-11-15T01:11:37.586Z,1000.11
2022-11-15T01:12:18.036Z,1000.12
2022-11-15T01:12:58.516Z,1000.12
2022-11-15T01:13:38.961Z,1000.06
2022-11-15T01:14:59.869Z,1000.08
2022-11-15T01:15:40.352Z,1000.05
2022-11-15T01:16:20.775Z,1000.07
2022-11-15T01:17:01.313Z,1000.1
2022-11-15T01:17:41.699Z,1000.04
2022-11-15T01:18:22.224Z,1000.05
2022-11-15T01:19:02.664Z,1000.07
2022-11-15T01:19:43.156Z,1000.01
2022-11-15T01:20:23.673Z,1000.01
2022-11-15T01:21:10.702Z,1000.06
2022-11-15T01:22:31.682Z,1000.03
2022-11-15T01:23:12.109Z,1000.02
2022-11-15T01:23:52.634Z,1000.04
2022-11-15T01:24:39.878Z,1000.08
2022-11-15T01:25:20.343Z,1000.06
2022-11-15T01:26:00.826Z,1000.06
2022-11-15T01:26:45.195Z,1000.1
2022-11-15T01:27:25.643Z,1000.05
2022-11-15T01:28:06.094Z,1000.04
2022-11-15T01:28:46.566Z,1000.03
2022-11-15T01:29:27.044Z,1000.05
2022-11-15T01:30:07.543Z,1000.02
2022-11-15T01:30:47.967Z,1000.02
2022-11-15T01:31:28.431Z,999.98
2022-11-15T01:32:08.971Z,999.94
2022-11-15T01:32:49.385Z,1000.02
2022-11-15T01:33:30.249Z,999.99
2022-11-15T01:34:50.762Z,999.96
2022-11-15T01:35:31.216Z,999.95
2022-11-15T01:38:54.047Z,999.92
2022-11-15T01:41:14.268Z,999.93
2022-11-15T01:41:54.797Z,999.89
2022-11-15T01:42:35.225Z,999.87
2022-11-15T01:43:15.680Z,999.89
2022-11-15T01:43:56.163Z,999.87
2022-11-15T01:44:36.685Z,999.81
2022-11-15T01:45:17.177Z,999.85
2022-11-15T01:45:57.569Z,999.84
2022-11-15T01:46:38.040Z,999.91
2022-11-15T01:47:18.521Z,999.86
2022-11-15T01:47:58.966Z,999.86
2022-11-15T01:48:39.425Z,999.83
2022-11-15T01:50:00.345Z,999.8
2022-11-15T01:50:40.840Z,999.74
2022-11-15T01:51:21.312Z,999.75
2022-11-15T01:52:01.784Z,999.73
2022-11-15T01:52:42.281Z,999.72
2022-11-15T01:53:22.752Z,999.69
2022-11-15T01:54:03.174Z,999.67
2022-11-15T01:54:43.670Z,999.66
2022-11-15T01:55:24.215Z,999.63
2022-11-15T01:56:05.276Z,999.63
2022-11-15T01:56:45.766Z,999.63
2022-11-15T01:57:26.226Z,999.68
2022-11-15T01:58:06.697Z,999.71
2022-11-15T01:58:47.172Z,999.65
2022-11-15T02:00:08.115Z,999.66
2022-11-15T02:00:48.617Z,999.61
2022-11-15T02:01:29.051Z,999.64
2022-11-15T02:02:09.519Z,999.68
2022-11-15T02:02:50.611Z,999.68
2022-11-15T02:03:30.819Z,999.68
2022-11-15T02:04:10.931Z,999.68
2022-11-15T02:04:51.431Z,999.65
2022-11-15T02:05:31.889Z,999.65
2022-11-15T02:06:12.349Z,999.66
2022-11-15T02:06:52.911Z,999.63
2022-11-15T02:07:33.353Z,999.6
2022-11-15T02:08:13.814Z,999.58
2022-11-15T02:08:54.235Z,999.58
2022-11-15T02:10:15.216Z,999.53
2022-11-15T02:10:55.684Z,999.53
2022-11-15T02:11:36.108Z,999.5
2022-11-15T02:12:16.571Z,999.51
2022-11-15T02:12:57.052Z,999.5
2022-11-15T02:13:37.525Z,999.51
2022-11-15T02:14:17.963Z,999.49
2022-11-15T02:14:58.432Z,999.47
2022-11-15T02:17:16.227Z,999.44
2022-11-15T02:17:56.738Z,999.41
2022-11-15T02:18:37.201Z,999.45
2022-11-15T02:19:17.657Z,999.45
2022-11-15T02:19:58.115Z,999.43
2022-11-15T02:20:38.581Z,999.46
2022-11-15T02:21:19.095Z,999.45
2022-11-15T02:21:59.560Z,999.43
2022-11-15T02:22:40.039Z,999.45
2022-11-15T02:24:01.007Z,999.43
2022-11-15T02:24:41.457Z,999.44
2022-11-15T02:25:21.943Z,999.44
2022-11-15T02:26:02.407Z,999.48
2022-11-15T02:26:42.864Z,999.49
2022-11-15T02:27:23.333Z,999.49
2022-11-15T02:28:03.841Z,999.49
2022-11-15T02:28:44.276Z,999.51
2022-11-15T02:29:24.743Z,999.43
2022-11-15T02:30:05.235Z,999.46
2022-11-15T02:30:45.724Z,999.45
2022-11-15T02:31:26.191Z,999.45
2022-11-15T02:32:06.687Z,999.46
2022-11-15T02:32:47.133Z,999.43
2022-11-15T02:34:08.080Z,999.43
2022-11-15T02:34:48.575Z,999.41
2022-11-15T02:35:29.067Z,999.39
2022-11-15T02:36:09.585Z,999.38
2022-11-15T02:36:50.055Z,999.41
2022-11-15T02:37:30.533Z,999.42
2022-11-15T02:38:10.973Z,999.41
2022-11-15T02:38:51.497Z,999.41
2022-11-15T02:39:32.015Z,999.38
2022-11-15T02:40:12.512Z,999.44
2022-11-15T02:40:53.027Z,999.42
2022-11-15T02:41:33.507Z,999.39
2022-11-15T02:42:13.964Z,999.45
2022-11-15T02:42:54.460Z,999.47
2022-11-15T02:43:34.999Z,999.47
2022-11-15T02:44:15.429Z,999.46
2022-11-15T02:44:55.919Z,999.47
2022-11-15T02:45:36.387Z,999.53
2022-11-15T02:46:16.846Z,999.43
2022-11-15T02:46:57.310Z,999.42
2022-11-15T02:47:37.788Z,999.39
2022-11-15T02:48:18.255Z,999.43
2022-11-15T02:48:58.761Z,999.42
2022-11-15T02:49:39.262Z,999.37
2022-11-15T02:50:19.743Z,999.39
2022-11-15T02:51:00.169Z,999.37
2022-11-15T02:51:40.638Z,999.34
2022-11-15T02:52:21.095Z,999.4
2022-11-15T02:53:01.561Z,999.37
2022-11-15T02:53:42.066Z,999.4
2022-11-15T02:54:22.586Z,999.33
2022-11-15T02:55:03.037Z,999.35
2022-11-15T02:55:43.513Z,999.28
2022-11-15T02:56:23.952Z,999.33
2022-11-15T02:57:04.431Z,999.3
2022-11-15T02:57:44.906Z,999.32
2022-11-15T02:58:25.390Z,999.28
2022-11-15T02:59:05.844Z,999.3
2022-11-15T02:59:46.327Z,999.26
2022-11-15T03:00:26.771Z,999.22
2022-11-15T03:01:07.290Z,999.2
2022-11-15T03:01:47.737Z,999.21
2022-11-15T03:02:28.194Z,999.21
2022-11-15T03:03:08.675Z,999.24
2022-11-15T03:03:49.165Z,999.25
2022-11-15T03:04:29.664Z,999.3
2022-11-15T03:05:10.134Z,999.24
2022-11-15T03:05:50.549Z,999.3
2022-11-15T03:06:31.023Z,999.28
2022-11-15T03:07:11.542Z,999.25
2022-11-15T03:07:51.987Z,999.31
2022-11-15T03:08:32.515Z,999.31
2022-11-15T03:09:12.979Z,999.29
2022-11-15T03:09:53.437Z,999.27
2022-11-15T03:12:51.957Z,999.27
2022-11-15T03:13:32.728Z,999.2
2022-11-15T03:14:12.931Z,999.23
2022-11-15T03:14:53.396Z,999.2
2022-11-15T03:15:33.864Z,999.18
2022-11-15T03:16:14.330Z,999.14
2022-11-15T03:16:54.819Z,999.17
2022-11-15T03:18:15.791Z,999.08
2022-11-15T03:18:56.255Z,999.08
2022-11-15T03:19:37.379Z,999.06
2022-11-15T03:20:17.873Z,999.03
2022-11-15T03:20:58.279Z,999.04
2022-11-15T03:21:38.741Z,999.1
2022-11-15T03:22:19.215Z,999.12
2022-11-15T03:22:59.730Z,999.06
2022-11-15T03:23:40.225Z,999.09
2022-11-15T03:24:24.796Z,999.07
2022-11-15T03:25:01.193Z,999.09
2022-11-15T03:25:41.686Z,999.13
2022-11-15T03:26:22.131Z,999.16
2022-11-15T03:27:02.629Z,999.15
2022-11-15T03:27:43.142Z,999.15
2022-11-15T03:28:23.633Z,999.16
2022-11-15T03:29:04.111Z,999.16
2022-11-15T03:29:44.652Z,999.17
2022-11-15T03:30:25.075Z,999.16
2022-11-15T03:31:05.584Z,999.15
2022-11-15T03:31:49.952Z,999.18
2022-11-15T03:32:26.524Z,999.18
2022-11-15T03:33:07.011Z,999.15
2022-11-15T03:33:47.502Z,999.14
2022-11-15T03:34:27.988Z,999.1
2022-11-15T03:35:08.484Z,999.08
2022-11-15T03:35:48.921Z,999.15
2022-11-15T03:36:29.412Z,999.11
2022-11-15T03:37:09.906Z,999.11
2022-11-15T03:37:50.411Z,999.11
2022-11-15T03:38:30.947Z,999.16
2022-11-15T03:39:13.215Z,999.14
2022-11-15T03:39:51.873Z,999.14
2022-11-15T03:40:32.343Z,999.2
2022-11-15T03:41:12.857Z,999.15
2022-11-15T03:41:53.293Z,999.12
2022-11-15T03:42:33.760Z,999.16
2022-11-15T03:43:14.270Z,999.09
2022-11-15T03:43:54.740Z,999.13
2022-11-15T03:44:35.287Z,999.12
2022-11-15T03:45:15.744Z,999.14
2022-11-15T03:45:56.239Z,999.15
2022-11-15T03:46:36.753Z,999.12
2022-11-15T03:47:17.191Z,999.11
2022-11-15T03:47:57.658Z,999.12
2022-11-15T03:48:38.141Z,999.14
2022-11-15T03:49:18.669Z,999.05
2022-11-15T03:49:59.139Z,999.1
2022-11-15T03:50:39.619Z,999.05
2022-11-15T03:51:20.108Z,999.03
2022-11-15T03:52:00.555Z,999.03
2022-11-15T03:52:41.080Z,999.03
2022-11-15T03:53:21.564Z,999.08
2022-11-15T03:54:02.097Z,999.03
2022-11-15T03:54:42.639Z,999.02
2022-11-15T03:55:23.098Z,999
2022-11-15T03:56:03.582Z,999.01
2022-11-15T03:56:44.087Z,999.03
2022-11-15T03:57:24.572Z,999.01
2022-11-15T03:58:05.129Z,999.01
2022-11-15T03:58:45.576Z,999.02
2022-11-15T03:59:26.022Z,999
2022-11-15T04:00:06.491Z,999.01
2022-11-15T04:00:47.020Z,998.99
2022-11-15T04:02:07.970Z,998.97
2022-11-15T04:02:48.423Z,998.94
2022-11-15T04:03:29.227Z,998.94
2022-11-15T04:04:09.425Z,998.96
2022-11-15T04:04:49.884Z,998.92
2022-11-15T04:05:30.329Z,998.94
2022-11-15T04:06:10.841Z,998.9
2022-11-15T04:06:51.332Z,998.86
2022-11-15T04:07:31.874Z,998.91
2022-11-15T04:08:12.326Z,998.86
2022-11-15T04:08:52.779Z,998.9
2022-11-15T04:09:33.284Z,998.87
2022-11-15T04:10:13.801Z,998.83
2022-11-15T04:10:54.291Z,998.84
2022-11-15T04:11:34.762Z,998.85
2022-11-15T04:12:15.737Z,998.86
2022-11-15T04:12:56.235Z,998.88
2022-11-15T04:13:36.779Z,998.85
2022-11-15T04:16:50.464Z,998.82
2022-11-15T04:17:30.910Z,998.84
2022-11-15T04:18:11.404Z,998.82
2022-11-15T04:18:51.952Z,998.84
2022-11-15T04:19:32.395Z,998.83
2022-11-15T04:20:12.920Z,998.86
2022-11-15T04:20:53.384Z,998.88
2022-11-15T04:21:33.863Z,998.87
2022-11-15T04:22:14.305Z,998.88
2022-11-15T04:22:54.767Z,998.84
2022-11-15T04:23:35.436Z,998.88
2022-11-15T04:24:15.718Z,998.93
2022-11-15T04:24:56.264Z,998.89
2022-11-15T04:25:36.701Z,998.93
2022-11-15T04:26:17.180Z,998.92
2022-11-15T04:26:57.671Z,998.92
2022-11-15T04:27:38.127Z,998.95
2022-11-15T04:28:18.590Z,998.96
2022-11-15T04:28:59.033Z,999.01
2022-11-15T04:30:19.981Z,998.99
2022-11-15T04:31:00.465Z,998.96
2022-11-15T04:31:40.980Z,998.97
2022-11-15T04:32:21.489Z,998.93
2022-11-15T04:33:01.967Z,998.96
2022-11-15T04:33:42.509Z,998.98
2022-11-15T04:34:22.939Z,998.97
2022-11-15T04:35:03.454Z,999
2022-11-15T04:35:43.897Z,999.02
2022-11-15T04:36:24.403Z,999
2022-11-15T04:37:04.886Z,999
2022-11-15T04:37:49.213Z,999.01
2022-11-15T04:38:25.847Z,999.01
2022-11-15T04:39:06.277Z,999
2022-11-15T04:39:46.733Z,999.02
2022-11-15T04:40:27.220Z,999.04
2022-11-15T04:41:07.699Z,998.98
2022-11-15T04:41:48.154Z,999.01
2022-11-15T04:42:28.621Z,999.04
2022-11-15T04:43:09.661Z,999.04
2022-11-15T04:43:50.138Z,999.01
2022-11-15T04:44:30.626Z,999.03
2022-11-15T04:45:11.122Z,999.04
2022-11-15T04:45:51.609Z,999.01
2022-11-15T04:46:32.168Z,998.99
2022-11-15T04:47:12.569Z,999.06
2022-11-15T04:47:53.058Z,999.04
2022-11-15T04:48:33.583Z,999.03
2022-11-15T04:49:14.101Z,999.05
2022-11-15T04:49:54.541Z,999.04
2022-11-15T04:50:35.050Z,999.01
2022-11-15T04:51:15.530Z,999
2022-11-15T04:51:56.046Z,999
2022-11-15T04:53:17.064Z,999.08
2022-11-15T04:53:57.583Z,999.05
2022-11-15T04:54:38.045Z,999.04
2022-11-15T04:55:18.547Z,999.06
2022-11-15T04:55:59.036Z,999.01
2022-11-15T04:56:39.517Z,999
2022-11-15T04:57:19.986Z,999.01
2022-11-15T04:58:00.487Z,999
2022-11-15T04:58:40.981Z,999.04
2022-11-15T04:59:21.499Z,998.98
2022-11-15T05:00:42.544Z,999.04
2022-11-15T05:01:23.082Z,999.05
2022-11-15T05:02:03.567Z,998.98
2022-11-15T05:02:44.150Z,999.03
2022-11-15T05:03:24.586Z,999.01
2022-11-15T05:04:05.111Z,999.04
2022-11-15T05:04:45.632Z,999.03
2022-11-15T05:05:26.047Z,999.01
2022-11-15T05:06:06.534Z,998.99
2022-11-15T05:06:47.071Z,999.01
2022-11-15T05:07:27.545Z,998.99
2022-11-15T05:08:08.036Z,999.02
2022-11-15T05:08:48.472Z,998.99
2022-11-15T05:09:28.979Z,999
2022-11-15T05:10:09.460Z,998.99
2022-11-15T05:10:49.977Z,998.99
2022-11-15T05:11:30.444Z,999.01
2022-11-15T05:12:10.937Z,999.02
2022-11-15T05:12:51.408Z,998.97
2022-11-15T05:13:32.088Z,998.99
2022-11-15T05:14:12.372Z,999.02
2022-11-15T05:17:41.233Z,999.03
2022-11-15T05:18:23.670Z,999.04
2022-11-15T05:19:02.201Z,999.04
2022-11-15T05:19:42.716Z,999.06
2022-11-15T05:20:23.220Z,999.05
2022-11-15T05:21:03.701Z,999.11
2022-11-15T05:21:44.185Z,999.05
2022-11-15T05:22:24.698Z,999.06
2022-11-15T05:23:05.162Z,999.08
2022-11-15T05:23:45.679Z,999.05
2022-11-15T05:24:26.175Z,999.11
2022-11-15T05:25:06.648Z,999.09
2022-11-15T05:25:47.166Z,999.05
2022-11-15T05:26:27.621Z,999.04
2022-11-15T05:27:08.145Z,999.05
2022-11-15T05:27:48.599Z,999.05
2022-11-15T05:28:29.061Z,999.04
2022-11-15T05:29:09.555Z,999.04
2022-11-15T05:29:50.052Z,998.98
2022-11-15T05:30:30.560Z,999.01
2022-11-15T05:31:11.044Z,999.01
2022-11-15T05:31:51.573Z,999.01
2022-11-15T05:32:32.149Z,998.97
2022-11-15T05:33:12.620Z,998.98
2022-11-15T05:33:53.068Z,999.01
2022-11-15T05:34:33.588Z,998.96
2022-11-15T05:35:14.613Z,998.98
2022-11-15T05:35:55.079Z,998.99
2022-11-15T05:36:35.578Z,998.98
2022-11-15T05:37:16.056Z,998.98
2022-11-15T05:37:56.540Z,998.98
2022-11-15T05:38:37.056Z,998.98
2022-11-15T05:39:17.632Z,998.95
2022-11-15T05:39:58.031Z,998.96
2022-11-15T05:40:38.505Z,998.93
2022-11-15T05:41:18.977Z,998.93
2022-11-15T05:41:59.515Z,998.91
2022-11-15T05:42:40.053Z,998.89
2022-11-15T05:43:20.599Z,998.87
2022-11-15T05:44:01.049Z,998.9
2022-11-15T05:44:41.495Z,998.92
2022-11-15T05:45:26.655Z,998.9
2022-11-15T05:46:02.497Z,998.91
2022-11-15T05:46:43.003Z,998.9
2022-11-15T05:47:23.547Z,998.94
2022-11-15T05:48:44.523Z,998.97
2022-11-15T05:49:26.589Z,998.92
2022-11-15T05:50:07.062Z,998.91
2022-11-15T05:50:47.612Z,998.99
2022-11-15T05:51:28.133Z,998.94
2022-11-15T05:52:08.606Z,998.9
2022-11-15T05:52:49.974Z,998.92
2022-11-15T05:53:30.732Z,998.93
2022-11-15T05:54:10.950Z,998.91
2022-11-15T06:31:22.826Z,999.11
2022-11-15T06:32:03.272Z,999.1
2022-11-15T06:32:43.775Z,999.13
2022-11-15T06:33:24.262Z,999.14
2022-11-15T06:34:04.709Z,999.16
2022-11-15T06:34:45.253Z,999.18
2022-11-15T06:35:25.773Z,999.14
2022-11-15T06:36:06.260Z,999.19
2022-11-15T06:36:46.806Z,999.2
2022-11-15T06:37:27.257Z,999.25
2022-11-15T06:38:07.785Z,999.3
2022-11-15T06:38:48.228Z,999.27
2022-11-15T06:39:28.734Z,999.28
2022-11-15T06:40:09.214Z,999.24
2022-11-15T06:40:49.652Z,999.27
2022-11-15T06:41:30.116Z,999.28
2022-11-15T06:42:10.599Z,999.27
2022-11-15T06:42:51.097Z,999.3
2022-11-15T06:43:31.917Z,999.28
2022-11-15T06:44:12.068Z,999.31
2022-11-15T06:44:52.541Z,999.27
2022-11-15T06:45:33.021Z,999.26
2022-11-15T06:46:13.564Z,999.28
2022-11-15T06:46:54.124Z,999.3
2022-11-15T06:47:34.560Z,999.34
2022-11-15T06:48:15.120Z,999.35
2022-11-15T06:48:55.562Z,999.32
2022-11-15T06:49:36.050Z,999.36
2022-11-15T06:50:57.167Z,999.36
2022-11-15T06:51:37.632Z,999.4
2022-11-15T06:52:18.166Z,999.4
2022-11-15T06:52:58.703Z,999.43
2022-11-15T06:53:39.499Z,999.42
2022-11-15T06:54:19.936Z,999.42
2022-11-15T06:55:00.625Z,999.43
2022-11-15T06:55:41.409Z,999.46
2022-11-15T06:56:23.374Z,999.44
2022-11-15T06:59:24.617Z,999.54
2022-11-15T07:00:05.239Z,999.5
2022-11-15T07:00:45.644Z,999.5
2022-11-15T07:01:26.105Z,999.52
2022-11-15T07:02:06.732Z,999.48
2022-11-15T07:02:47.077Z,999.5
2022-11-15T07:06:06.731Z,999.52
2022-11-15T07:06:41.875Z,999.55
2022-11-15T07:07:23.059Z,999.54
2022-11-15T07:08:10.449Z,999.55
2022-11-15T07:08:51.071Z,999.56
2022-11-15T07:11:56.279Z,999.58
2022-11-15T07:12:36.775Z,999.64
2022-11-15T07:13:17.225Z,999.62
2022-11-15T07:13:57.806Z,999.6
2022-11-15T07:14:38.234Z,999.59
2022-11-15T07:15:18.717Z,999.6
2022-11-15T07:15:59.271Z,999.59
2022-11-15T07:16:40.078Z,999.65
2022-11-15T07:17:20.596Z,999.64
2022-11-15T07:18:01.059Z,999.66
2022-11-15T07:18:41.553Z,999.66
2022-11-15T07:19:22.214Z,999.61
2022-11-15T07:20:43.063Z,999.67
2022-11-15T07:21:27.505Z,999.67
2022-11-15T07:22:04.111Z,999.69
2022-11-15T07:22:44.571Z,999.69
2022-11-15T07:23:25.070Z,999.73
2022-11-15T07:24:05.640Z,999.69
2022-11-15T07:24:46.060Z,999.74
2022-11-15T07:25:26.587Z,999.71
2022-11-15T07:26:07.016Z,999.74
2022-11-15T07:26:47.510Z,999.72
2022-11-15T07:27:27.941Z,999.75
2022-11-15T07:28:08.446Z,999.78
2022-11-15T07:28:49.127Z,999.79
2022-11-15T07:29:29.728Z,999.79
2022-11-15T07:30:10.387Z,999.84
2022-11-15T07:30:51.374Z,999.87
2022-11-15T07:31:31.362Z,999.9
2022-11-15T07:32:11.884Z,999.89
2022-11-15T07:32:53.482Z,999.92
2022-11-15T07:33:34.359Z,999.87
2022-11-15T07:34:14.471Z,999.88
2022-11-15T07:34:54.964Z,999.9
2022-11-15T07:35:35.505Z,999.91
2022-11-15T07:36:16.294Z,999.93
2022-11-15T07:36:56.846Z,999.95
2022-11-15T07:37:37.627Z,999.98
2022-11-15T07:38:18.113Z,999.97
2022-11-15T07:38:58.609Z,999.95
2022-11-15T07:39:39.077Z,999.99
2022-11-15T07:40:19.628Z,1000
2022-11-15T07:41:00.115Z,1000.02
2022-11-15T07:41:40.609Z,1000.02
2022-11-15T07:42:21.107Z,1000.03
2022-11-15T07:43:01.644Z,999.99
2022-11-15T07:43:42.160Z,1000.01
2022-11-15T07:44:22.733Z,1000.03
2022-11-15T07:45:03.263Z,999.99
2022-11-15T07:45:43.802Z,1000.02
2022-11-15T07:46:24.345Z,1000.07
2022-11-15T07:47:04.843Z,1000.06
2022-11-15T07:47:45.337Z,1000.03
2022-11-15T07:48:26.086Z,1000.06
2022-11-15T07:49:07.411Z,1000.08
2022-11-15T07:49:47.962Z,1000.03
2022-11-15T07:50:28.484Z,1000.06
2022-11-15T07:51:13.841Z,1000.03
2022-11-15T07:51:49.457Z,1000.05
2022-11-15T07:52:30.014Z,999.97
2022-11-15T07:53:10.561Z,1000
2022-11-15T07:53:51.255Z,1000
2022-11-15T07:54:31.787Z,999.95
2022-11-15T07:55:14.577Z,999.94
2022-11-15T07:56:39.732Z,999.93
2022-11-15T07:57:22.425Z,999.95
2022-11-15T07:58:03.277Z,999.94
2022-11-15T07:58:43.714Z,999.94
2022-11-15T07:59:24.238Z,999.93
2022-11-15T08:00:04.808Z,999.92
2022-11-15T08:00:45.372Z,999.9
2022-11-15T08:01:26.206Z,999.89
2022-11-15T08:02:06.911Z,999.86
2022-11-15T08:02:48.272Z,999.87
2022-11-15T08:03:30.648Z,999.84
2022-11-15T08:04:51.873Z,999.92
2022-11-15T08:05:32.334Z,999.92
2022-11-15T08:06:13.984Z,999.91
2022-11-15T08:06:54.855Z,999.92
2022-11-15T08:07:35.733Z,999.89
2022-11-15T08:08:16.300Z,999.91
2022-11-15T08:08:56.757Z,999.89
2022-11-15T08:09:37.637Z,999.89
2022-11-15T08:10:18.375Z,999.91
2022-11-15T08:10:58.886Z,999.94
2022-11-15T08:11:39.388Z,999.97
2022-11-15T08:12:19.991Z,999.94
2022-11-15T08:13:03.325Z,999.96
2022-11-15T08:13:43.913Z,999.94
2022-11-15T08:14:24.414Z,999.93
2022-11-15T08:15:05.137Z,999.9
2022-11-15T08:19:56.343Z,999.85
2022-11-15T08:20:37.054Z,999.82
2022-11-15T08:21:18.467Z,999.82
2022-11-15T08:21:58.116Z,999.84
2022-11-15T08:22:38.679Z,999.83
2022-11-15T08:23:59.594Z,999.81
2022-11-15T08:24:40.284Z,999.79
2022-11-15T08:25:20.875Z,999.81
2022-11-15T08:26:01.262Z,999.81
2022-11-15T08:26:42.023Z,999.8
2022-11-15T08:27:22.654Z,999.8
2022-11-15T08:28:02.991Z,999.72
2022-11-15T08:28:43.545Z,999.75
2022-11-15T08:29:24.029Z,999.79
2022-11-15T08:30:04.537Z,999.76
2022-11-15T08:30:45.083Z,999.77
2022-11-15T08:31:25.645Z,999.74
2022-11-15T08:32:06.097Z,999.74
2022-11-15T08:32:46.612Z,999.72
2022-11-15T08:33:27.266Z,999.74
2022-11-15T08:34:07.671Z,999.76
2022-11-15T08:34:48.237Z,999.74
2022-11-15T08:35:29.440Z,999.75
2022-11-15T08:36:09.365Z,999.76
2022-11-15T08:36:50.588Z,999.76
2022-11-15T08:37:31.097Z,999.74
2022-11-15T08:38:11.598Z,999.72
2022-11-15T08:38:52.131Z,999.72
2022-11-15T08:39:32.663Z,999.73
2022-11-15T08:40:13.274Z,999.71
2022-11-15T08:40:54.244Z,999.69
2022-11-15T08:41:34.866Z,999.66
2022-11-15T08:42:19.568Z,999.64
2022-11-15T08:42:55.891Z,999.61
2022-11-15T08:43:36.583Z,999.63
2022-11-15T08:44:17.098Z,999.61
2022-11-15T08:44:57.644Z,999.57
2022-11-15T08:45:38.139Z,999.59
2022-11-15T08:46:18.685Z,999.58
2022-11-15T08:46:59.217Z,999.55
2022-11-15T08:47:39.822Z,999.53
2022-11-15T08:49:00.811Z,999.58
2022-11-15T08:49:41.344Z,999.55
2022-11-15T08:50:21.880Z,999.59
2022-11-15T08:51:02.415Z,999.58
2022-11-15T08:51:42.981Z,999.66
2022-11-15T08:52:23.506Z,999.65
2022-11-15T08:53:04.110Z,999.65
2022-11-15T08:53:44.675Z,999.68
2022-11-15T08:54:25.143Z,999.68
2022-11-15T08:55:05.724Z,999.65
2022-11-15T08:55:46.174Z,999.66
2022-11-15T08:56:26.758Z,999.64
2022-11-15T08:57:07.237Z,999.67
2022-11-15T08:57:47.735Z,999.65
2022-11-15T08:58:28.480Z,999.66
2022-11-15T08:59:08.897Z,999.65
2022-11-15T08:59:49.379Z,999.63
2022-11-15T09:00:29.866Z,999.63
2022-11-15T09:01:12.017Z,999.61
2022-11-15T09:01:51.749Z,999.65
2022-11-15T09:02:32.287Z,999.63
2022-11-15T09:03:12.837Z,999.63
2022-11-15T09:03:54.102Z,999.59
2022-11-15T09:04:35.047Z,999.59
2022-11-15T09:05:15.568Z,999.59
2022-11-15T09:05:56.099Z,999.58
2022-11-15T09:06:39.712Z,999.59
2022-11-15T09:07:17.172Z,999.55
2022-11-15T09:07:57.627Z,999.58
2022-11-15T09:08:47.300Z,999.56
2022-11-15T09:09:18.638Z,999.56
2022-11-15T09:09:59.153Z,999.56
2022-11-15T09:10:39.674Z,999.54
2022-11-15T09:11:20.251Z,999.55
2022-11-15T09:12:02.617Z,999.54
2022-11-15T09:12:41.419Z,999.53
2022-11-15T09:13:21.922Z,999.54
2022-11-15T09:14:02.433Z,999.55
2022-11-15T09:14:42.972Z,999.53
2022-11-15T09:15:23.447Z,999.5
2022-11-15T09:16:03.998Z,999.52
2022-11-15T09:16:44.607Z,999.52
2022-11-15T09:17:25.347Z,999.52
2022-11-15T09:18:05.654Z,999.5
2022-11-15T09:18:46.151Z,999.52
2022-11-15T09:19:26.686Z,999.5
2022-11-15T09:20:07.172Z,999.51
2022-11-15T09:20:47.794Z,999.53
2022-11-15T09:21:28.353Z,999.49
2022-11-15T09:22:08.785Z,999.52
2022-11-15T09:23:29.823Z,999.48
2022-11-15T09:24:10.316Z,999.45
2022-11-15T09:24:50.862Z,999.44
2022-11-15T09:25:31.395Z,999.46
2022-11-15T09:26:11.957Z,999.44
2022-11-15T09:26:52.489Z,999.42
2022-11-15T09:27:33.043Z,999.45
2022-11-15T09:28:16.326Z,999.43
2022-11-15T09:28:54.294Z,999.43
2022-11-15T09:29:34.865Z,999.42
2022-11-15T09:30:15.556Z,999.38
2022-11-15T09:30:55.914Z,999.41
2022-11-15T09:31:36.596Z,999.35
2022-11-15T09:32:17.001Z,999.32
2022-11-15T09:32:57.566Z,999.34
2022-11-15T09:33:38.122Z,999.35
2022-11-15T09:34:18.725Z,999.36
2022-11-15T09:34:59.187Z,999.31
2022-11-15T09:35:39.709Z,999.28
2022-11-15T09:36:20.201Z,999.25
2022-11-15T09:37:00.755Z,999.29
2022-11-15T09:37:41.244Z,999.3
2022-11-15T09:38:21.883Z,999.23
2022-11-15T09:39:02.383Z,999.22
2022-11-15T09:39:42.877Z,999.19
2022-11-15T09:40:23.811Z,999.19
2022-11-15T09:41:05.639Z,999.17
2022-11-15T09:41:46.437Z,999.2
2022-11-15T09:42:27.832Z,999.14
2022-11-15T09:43:11.200Z,999.16
2022-11-15T09:43:52.609Z,999.15
2022-11-15T09:44:33.392Z,999.16
2022-11-15T09:45:17.492Z,999.1
2022-11-15T09:45:58.102Z,999.15
2022-11-15T09:46:43.440Z,998.73
2022-11-15T09:47:24.387Z,999.11
2022-11-15T09:48:05.077Z,999.13
2022-11-15T09:48:45.503Z,999.03
2022-11-15T09:49:27.259Z,998.99
2022-11-15T09:50:08.571Z,999.07
2022-11-15T09:50:49.329Z,999.14
2022-11-15T09:51:29.874Z,999.05
2022-11-15T09:52:10.405Z,998.97
2022-11-15T09:52:51.523Z,998.98
2022-11-15T09:54:01.386Z,998.96
2022-11-15T09:54:54.619Z,998.88
2022-11-15T09:55:33.675Z,998.85
2022-11-15T09:56:15.049Z,998.87
2022-11-15T09:56:56.583Z,998.85
2022-11-15T09:57:37.090Z,998.86
2022-11-15T09:58:17.608Z,998.83
2022-11-15T09:59:38.674Z,998.91
2022-11-15T10:00:59.789Z,998.9
2022-11-15T10:02:20.943Z,998.86
2022-11-15T10:03:01.272Z,998.88
2022-11-15T10:03:43.230Z,998.88
2022-11-15T10:04:23.712Z,998.89
2022-11-15T10:05:04.446Z,998.88
2022-11-15T10:05:45.026Z,998.88
2022-11-15T10:06:25.579Z,998.89
2022-11-15T10:07:06.085Z,998.88
2022-11-15T10:07:46.588Z,998.86
2022-11-15T10:08:27.078Z,998.83
2022-11-15T10:09:07.598Z,998.8
2022-11-15T10:09:48.073Z,998.81
2022-11-15T10:10:28.663Z,998.86
2022-11-15T10:11:35.959Z,998.8
2022-11-15T10:11:49.587Z,998.83
2022-11-15T10:12:30.131Z,998.78
2022-11-15T10:13:10.680Z,998.95
2022-11-15T10:13:51.143Z,998.79
2022-11-15T10:14:31.793Z,998.78
2022-11-15T10:15:12.317Z,998.78